createdAt,value
2018-08-13T00:00:12.642Z,63.54
2018-08-13T00:01:12.637Z,63.73
2018-08-13T00:02:12.628Z,64.02
2018-08-13T00:03:12.622Z,64.22
2018-08-13T00:04:12.614Z,64.12
2018-08-13T00:05:12.604Z,64.22
2018-08-13T00:06:12.597Z,64.18
2018-08-13T00:07:12.588Z,64.02
2018-08-13T00:08:12.581Z,64.02
2018-08-13T00:09:12.571Z,63.60
2018-08-13T00:10:12.562Z,63.70
2018-08-13T00:11:12.560Z,63.41
2018-08-13T00:12:12.551Z,63.89
2018-08-13T00:13:12.543Z,63.83
2018-08-13T00:14:12.538Z,63.83
2018-08-13T00:15:12.532Z,63.60
2018-08-13T00:16:12.520Z,63.54
2018-08-13T00:17:12.510Z,63.15
2018-08-13T00:18:12.514Z,62.87
2018-08-13T00:19:12.497Z,63.02
2018-08-13T00:20:12.486Z,63.32
2018-08-13T00:21:12.480Z,63.22
2018-08-13T00:22:12.476Z,62.84
2018-08-13T00:23:12.461Z,63.06
2018-08-13T00:24:12.460Z,63.12
2018-08-13T00:25:12.445Z,63.15
2018-08-13T00:26:12.440Z,63.15
2018-08-13T00:27:12.430Z,63.64
2018-08-13T00:28:12.428Z,63.64
2018-08-13T00:29:12.413Z,63.54
2018-08-13T00:30:12.411Z,63.60
2018-08-13T00:31:12.397Z,63.35
2018-08-13T00:32:12.394Z,62.87
2018-08-13T00:33:12.386Z,62.74
2018-08-13T00:34:12.379Z,62.77
2018-08-13T00:35:12.369Z,62.29
2018-08-13T00:36:12.358Z,63.22
2018-08-13T00:37:12.353Z,62.96
2018-08-13T00:38:12.349Z,63.02
2018-08-13T00:39:12.340Z,62.74
2018-08-13T00:40:12.330Z,62.45
2018-08-13T00:41:12.328Z,62.55
2018-08-13T00:42:12.319Z,62.93
2018-08-13T00:43:12.312Z,63.32
2018-08-13T00:44:12.297Z,63.12
2018-08-13T00:45:12.291Z,63.70
2018-08-13T00:46:12.288Z,62.93
2018-08-13T00:47:12.277Z,63.32
2018-08-13T00:48:12.274Z,62.74
2018-08-13T00:49:12.259Z,63.60
2018-08-13T00:50:12.255Z,63.12
2018-08-13T00:51:12.248Z,63.32
2018-08-13T00:52:12.235Z,63.51
2018-08-13T00:53:12.234Z,62.93
2018-08-13T00:54:12.219Z,62.45
2018-08-13T00:55:12.216Z,62.45
2018-08-13T00:56:12.204Z,62.55
2018-08-13T00:57:12.196Z,63.22
2018-08-13T00:58:12.196Z,63.60
2018-08-13T00:59:12.201Z,64.18
2018-08-13T01:00:12.178Z,63.99
2018-08-13T01:01:12.170Z,63.51
2018-08-13T01:02:12.159Z,64.09
2018-08-13T01:03:12.148Z,64.47
2018-08-13T01:04:12.144Z,64.18
2018-08-13T01:05:12.134Z,64.66
2018-08-13T01:06:12.121Z,65.14
2018-08-13T01:07:12.119Z,64.66
2018-08-13T01:08:12.109Z,64.09
2018-08-13T01:09:12.103Z,64.15
2018-08-13T01:10:12.092Z,64.18
2018-08-13T01:11:12.087Z,64.95
2018-08-13T01:12:12.076Z,64.66
2018-08-13T01:13:12.074Z,65.14
2018-08-13T01:14:12.067Z,64.92
2018-08-13T01:15:12.055Z,63.99
2018-08-13T01:16:12.045Z,64.34
2018-08-13T01:17:12.033Z,64.18
2018-08-13T01:18:12.037Z,64.47
2018-08-13T01:19:12.028Z,64.28
2018-08-13T01:20:12.016Z,63.70
2018-08-13T01:21:12.002Z,64.34
2018-08-13T01:22:11.998Z,64.18
2018-08-13T01:23:11.997Z,63.79
2018-08-13T01:24:11.978Z,64.37
2018-08-13T01:25:11.976Z,64.53
2018-08-13T01:26:11.967Z,64.63
2018-08-13T01:27:11.963Z,64.47
2018-08-13T01:28:11.951Z,63.99
2018-08-13T01:29:11.947Z,63.79
2018-08-13T01:30:11.935Z,64.18
2018-08-13T01:31:11.925Z,63.79
2018-08-13T01:32:11.917Z,63.60
2018-08-13T01:33:11.911Z,63.89
2018-08-13T01:34:11.902Z,63.79
2018-08-13T01:35:11.896Z,64.28
2018-08-13T01:36:11.880Z,63.89
2018-08-13T01:37:11.876Z,63.41
2018-08-13T01:38:11.872Z,63.60
2018-08-13T01:39:11.864Z,63.38
2018-08-13T01:40:11.853Z,63.89
2018-08-13T01:41:11.853Z,63.99
2018-08-13T01:42:11.844Z,63.79
2018-08-13T01:43:11.829Z,64.09
2018-08-13T01:44:11.823Z,63.79
2018-08-13T01:45:11.819Z,63.12
2018-08-13T01:46:11.811Z,63.12
2018-08-13T01:47:11.803Z,63.51
2018-08-13T01:48:11.789Z,63.02
2018-08-13T01:49:11.787Z,63.89
2018-08-13T01:50:11.773Z,63.57
2018-08-13T01:51:11.768Z,63.79
2018-08-13T01:52:11.760Z,63.99
2018-08-13T01:53:11.749Z,64.18
2018-08-13T01:54:11.742Z,63.89
2018-08-13T01:55:11.736Z,63.99
2018-08-13T01:56:11.728Z,63.02
2018-08-13T01:57:11.720Z,63.12
2018-08-13T01:58:11.711Z,63.70
2018-08-13T01:59:11.703Z,62.84
2018-08-13T02:00:11.707Z,62.81
2018-08-13T02:01:11.684Z,62.64
2018-08-13T02:02:11.680Z,63.02
2018-08-13T02:03:11.672Z,63.41
2018-08-13T02:04:11.664Z,64.09
2018-08-13T02:05:11.656Z,64.25
2018-08-13T02:06:11.649Z,64.28
2018-08-13T02:07:11.642Z,63.99
2018-08-13T02:08:11.631Z,62.93
2018-08-13T02:09:11.627Z,62.71
2018-08-13T02:10:11.622Z,62.90
2018-08-13T02:11:11.610Z,62.74
2018-08-13T02:12:11.594Z,62.64
2018-08-13T02:13:11.594Z,63.02
2018-08-13T02:14:11.588Z,62.74
2018-08-13T02:15:11.575Z,63.09
2018-08-13T02:16:11.564Z,63.22
2018-08-13T02:17:11.555Z,62.64
2018-08-13T02:18:11.545Z,62.55
2018-08-13T02:19:11.543Z,62.45
2018-08-13T02:20:11.530Z,62.26
2018-08-13T02:21:11.526Z,62.35
2018-08-13T02:22:11.520Z,62.55
2018-08-13T02:23:11.503Z,62.35
2018-08-13T02:24:11.544Z,62.64
2018-08-13T02:25:11.496Z,62.35
2018-08-13T02:26:11.484Z,62.35
2018-08-13T02:27:11.475Z,62.42
2018-08-13T02:28:11.468Z,63.22
2018-08-13T02:29:11.463Z,63.22
2018-08-13T02:30:11.452Z,62.90
2018-08-13T02:31:11.449Z,63.32
2018-08-13T02:32:11.436Z,62.93
2018-08-13T02:33:11.428Z,63.32
2018-08-13T02:34:11.430Z,63.02
2018-08-13T02:35:11.415Z,63.02
2018-08-13T02:36:11.405Z,63.32
2018-08-13T02:37:11.399Z,62.84
2018-08-13T02:38:11.388Z,63.22
2018-08-13T02:39:11.501Z,63.67
2018-08-13T02:40:11.369Z,63.48
2018-08-13T02:41:11.365Z,64.05
2018-08-13T02:42:11.356Z,64.15
2018-08-13T02:43:11.346Z,64.47
2018-08-13T02:44:11.337Z,64.66
2018-08-13T02:45:11.334Z,65.20
2018-08-13T02:46:11.325Z,64.92
2018-08-13T02:47:11.314Z,65.20
2018-08-13T02:48:11.313Z,64.92
2018-08-13T02:49:11.299Z,64.53
2018-08-13T02:50:11.293Z,64.72
2018-08-13T02:51:11.281Z,64.92
2018-08-13T02:52:11.277Z,63.76
2018-08-13T02:53:11.265Z,64.05
2018-08-13T02:54:11.260Z,64.34
2018-08-13T02:55:11.255Z,63.38
2018-08-13T02:56:11.241Z,63.57
2018-08-13T02:57:11.232Z,63.35
2018-08-13T02:58:11.317Z,64.02
2018-08-13T02:59:11.224Z,64.40
2018-08-13T03:00:11.206Z,64.31
2018-08-13T03:01:11.204Z,65.36
2018-08-13T03:02:11.197Z,65.36
2018-08-13T03:03:11.189Z,64.69
2018-08-13T03:04:11.189Z,64.89
2018-08-13T03:05:11.175Z,64.98
2018-08-13T03:06:11.160Z,64.98
2018-08-13T03:07:11.157Z,64.89
2018-08-13T03:08:11.140Z,65.56
2018-08-13T03:09:11.137Z,65.56
2018-08-13T03:10:11.125Z,65.36
2018-08-13T03:11:11.121Z,65.27
2018-08-13T03:12:11.111Z,65.75
2018-08-13T03:13:11.105Z,65.84
2018-08-13T03:14:11.102Z,66.23
2018-08-13T03:15:11.090Z,65.17
2018-08-13T03:16:11.076Z,64.89
2018-08-13T03:17:11.070Z,65.17
2018-08-13T03:18:11.069Z,66.03
2018-08-13T03:19:11.058Z,65.94
2018-08-13T03:20:11.045Z,65.94
2018-08-13T03:21:11.038Z,66.03
2018-08-13T03:22:11.031Z,66.33
2018-08-13T03:23:11.020Z,66.52
2018-08-13T03:24:11.008Z,66.90
2018-08-13T03:25:11.002Z,66.71
2018-08-13T03:26:10.994Z,66.13
2018-08-13T03:27:10.995Z,66.33
2018-08-13T03:28:10.978Z,67.09
2018-08-13T03:29:10.976Z,66.61
2018-08-13T03:30:11.000Z,66.90
2018-08-13T03:31:10.950Z,67.09
2018-08-13T03:32:10.947Z,66.42
2018-08-13T03:33:10.939Z,66.49
2018-08-13T03:34:10.932Z,66.58
2018-08-13T03:35:10.923Z,67.06
2018-08-13T03:36:10.913Z,67.06
2018-08-13T03:37:10.904Z,67.54
2018-08-13T03:38:10.892Z,67.25
2018-08-13T03:39:10.891Z,67.54
2018-08-13T03:40:10.889Z,67.35
2018-08-13T03:41:10.875Z,67.63
2018-08-13T03:42:10.864Z,66.86
2018-08-13T03:43:10.855Z,66.86
2018-08-13T03:44:10.847Z,66.67
2018-08-13T03:45:10.839Z,66.49
2018-08-13T03:46:10.832Z,66.19
2018-08-13T03:47:10.821Z,67.06
2018-08-13T03:48:10.814Z,66.86
2018-08-13T03:49:10.802Z,67.44
2018-08-13T03:50:10.801Z,67.73
2018-08-13T03:51:10.791Z,67.25
2018-08-13T03:52:10.779Z,67.35
2018-08-13T03:53:10.768Z,68.02
2018-08-13T03:54:10.758Z,67.35
2018-08-13T03:55:10.753Z,67.44
2018-08-13T03:56:10.746Z,67.06
2018-08-13T03:57:10.734Z,66.67
2018-08-13T03:58:10.727Z,66.49
2018-08-13T03:59:10.725Z,66.49
2018-08-13T04:00:10.707Z,66.67
2018-08-13T04:01:10.704Z,66.77
2018-08-13T04:02:10.689Z,66.77
2018-08-13T04:03:10.686Z,67.06
2018-08-13T04:04:10.682Z,67.06
2018-08-13T04:05:10.670Z,67.44
2018-08-13T04:06:10.660Z,67.16
2018-08-13T04:07:10.655Z,67.16
2018-08-13T04:08:10.645Z,67.73
2018-08-13T04:09:10.639Z,67.16
2018-08-13T04:10:10.619Z,67.06
2018-08-13T04:11:10.620Z,67.54
2018-08-13T04:12:10.611Z,67.25
2018-08-13T04:13:10.601Z,66.58
2018-08-13T04:14:10.592Z,66.29
2018-08-13T04:15:10.588Z,65.81
2018-08-13T04:16:10.576Z,66.10
2018-08-13T04:17:10.565Z,66.49
2018-08-13T04:18:10.562Z,66.77
2018-08-13T04:19:10.557Z,66.86
2018-08-13T04:20:10.550Z,67.06
2018-08-13T04:21:10.536Z,67.16
2018-08-13T04:22:10.520Z,67.06
2018-08-13T04:23:10.517Z,67.25
2018-08-13T04:24:10.505Z,67.16
2018-08-13T04:25:10.498Z,67.54
2018-08-13T04:26:10.490Z,67.83
2018-08-13T04:27:10.483Z,68.02
2018-08-13T04:28:10.472Z,68.02
2018-08-13T04:29:10.463Z,68.02
2018-08-13T04:30:10.453Z,68.12
2018-08-13T04:31:10.448Z,67.92
2018-08-13T04:32:10.441Z,67.44
2018-08-13T04:33:10.430Z,67.44
2018-08-13T04:34:10.425Z,67.06
2018-08-13T04:35:10.416Z,67.25
2018-08-13T04:36:10.406Z,67.54
2018-08-13T04:37:10.400Z,68.21
2018-08-13T04:38:10.390Z,68.12
2018-08-13T04:39:10.383Z,67.35
2018-08-13T04:40:10.369Z,66.39
2018-08-13T04:41:10.362Z,66.39
2018-08-13T04:42:10.350Z,66.49
2018-08-13T04:43:10.344Z,67.35
2018-08-13T04:44:10.338Z,67.83
2018-08-13T04:45:10.328Z,67.44
2018-08-13T04:46:10.318Z,66.96
2018-08-13T04:47:10.311Z,67.06
2018-08-13T04:48:10.303Z,67.06
2018-08-13T04:49:10.295Z,66.96
2018-08-13T04:50:10.284Z,67.54
2018-08-13T04:51:10.276Z,67.35
2018-08-13T04:52:10.313Z,67.76
2018-08-13T04:53:10.259Z,67.16
2018-08-13T04:54:10.253Z,67.35
2018-08-13T04:55:10.245Z,67.25
2018-08-13T04:56:10.233Z,67.92
2018-08-13T04:57:10.225Z,68.21
2018-08-13T04:58:10.212Z,68.02
2018-08-13T04:59:10.209Z,67.19
2018-08-13T05:00:10.199Z,67.19
2018-08-13T05:01:10.192Z,67.38
2018-08-13T05:02:10.182Z,67.09
2018-08-13T05:03:10.172Z,67.19
2018-08-13T05:04:10.164Z,66.90
2018-08-13T05:05:10.152Z,67.09
2018-08-13T05:06:10.149Z,65.84
2018-08-13T05:07:10.136Z,65.84
2018-08-13T05:08:10.130Z,66.03
2018-08-13T05:09:10.124Z,65.94
2018-08-13T05:10:10.111Z,64.50
2018-08-13T05:11:10.105Z,64.63
2018-08-13T05:12:10.099Z,64.34
2018-08-13T05:13:10.091Z,63.86
2018-08-13T05:14:10.079Z,63.48
2018-08-13T05:15:10.077Z,64.25
2018-08-13T05:16:10.063Z,63.76
2018-08-13T05:17:10.056Z,63.96
2018-08-13T05:18:10.048Z,63.19
2018-08-13T05:19:10.044Z,63.09
2018-08-13T05:20:10.032Z,63.57
2018-08-13T05:21:10.021Z,64.25
2018-08-13T05:22:10.010Z,62.61
2018-08-13T05:23:10.008Z,64.15
2018-08-13T05:24:10.037Z,64.15
2018-08-13T05:25:09.995Z,63.38
2018-08-13T05:26:09.976Z,64.05
2018-08-13T05:27:09.968Z,63.96
2018-08-13T05:28:09.963Z,63.86
2018-08-13T05:29:09.957Z,63.96
2018-08-13T05:30:09.962Z,64.05
2018-08-13T05:31:09.935Z,63.48
2018-08-13T05:32:09.930Z,63.57
2018-08-13T05:33:09.921Z,63.76
2018-08-13T05:34:09.908Z,63.67
2018-08-13T05:35:09.905Z,63.38
2018-08-13T05:36:09.897Z,64.25
2018-08-13T05:37:09.888Z,62.99
2018-08-13T05:38:09.916Z,63.57
2018-08-13T05:39:09.871Z,64.15
2018-08-13T05:40:09.858Z,64.92
2018-08-13T05:41:09.850Z,63.96
2018-08-13T05:42:09.841Z,64.25
2018-08-13T05:43:09.833Z,64.63
2018-08-13T05:44:09.825Z,64.92
2018-08-13T05:45:09.829Z,65.20
2018-08-13T05:46:09.811Z,65.20
2018-08-13T05:47:09.812Z,65.20
2018-08-13T05:48:09.789Z,64.98
2018-08-13T05:49:09.789Z,65.17
2018-08-13T05:50:09.776Z,64.69
2018-08-13T05:51:09.762Z,64.98
2018-08-13T05:52:09.759Z,65.36
2018-08-13T05:53:09.748Z,65.75
2018-08-13T05:54:09.740Z,66.61
2018-08-13T05:55:09.736Z,67.09
2018-08-13T05:56:09.726Z,67.09
2018-08-13T05:57:09.718Z,68.44
2018-08-13T05:58:09.707Z,68.24
2018-08-13T05:59:09.702Z,68.44
2018-08-13T06:00:09.692Z,68.73
2018-08-13T06:01:09.683Z,68.91
2018-08-13T06:02:09.675Z,68.63
2018-08-13T06:03:09.717Z,67.29
2018-08-13T06:04:09.658Z,67.67
2018-08-13T06:05:09.648Z,67.38
2018-08-13T06:06:09.640Z,67.96
2018-08-13T06:07:09.633Z,68.05
2018-08-13T06:08:09.623Z,68.63
2018-08-13T06:09:09.616Z,69.49
2018-08-13T06:10:09.615Z,69.20
2018-08-13T06:11:09.675Z,69.30
2018-08-13T06:12:09.589Z,68.91
2018-08-13T06:13:09.584Z,68.63
2018-08-13T06:14:09.575Z,68.82
2018-08-13T06:15:09.565Z,68.37
2018-08-13T06:16:09.562Z,68.28
2018-08-13T06:17:09.547Z,68.37
2018-08-13T06:18:09.556Z,68.37
2018-08-13T06:19:09.540Z,68.47
2018-08-13T06:20:09.529Z,68.76
2018-08-13T06:21:09.513Z,68.18
2018-08-13T06:22:09.509Z,68.85
2018-08-13T06:23:09.492Z,68.28
2018-08-13T06:24:09.553Z,67.13
2018-08-13T06:25:09.490Z,66.55
2018-08-13T06:26:09.474Z,66.16
2018-08-13T06:27:09.470Z,66.39
2018-08-13T06:28:09.513Z,66.10
2018-08-13T06:29:09.456Z,65.91
2018-08-13T06:30:09.507Z,65.53
2018-08-13T06:31:09.431Z,65.53
2018-08-13T06:32:09.431Z,66.77
2018-08-13T06:33:09.417Z,66.23
2018-08-13T06:34:09.411Z,67.77
2018-08-13T06:35:09.404Z,67.29
2018-08-13T06:36:09.395Z,67.19
2018-08-13T06:37:09.451Z,67.48
2018-08-13T06:38:09.376Z,67.19
2018-08-13T06:39:09.372Z,67.48
2018-08-13T06:40:09.360Z,67.19
2018-08-13T06:41:09.355Z,67.42
2018-08-13T06:42:09.349Z,66.74
2018-08-13T06:43:09.339Z,66.84
2018-08-13T06:44:09.327Z,67.61
2018-08-13T06:45:09.321Z,66.65
2018-08-13T06:46:09.317Z,66.04
2018-08-13T06:47:09.316Z,65.78
2018-08-13T06:48:09.296Z,65.69
2018-08-13T06:49:09.292Z,65.69
2018-08-13T06:50:09.286Z,65.69
2018-08-13T06:51:09.274Z,66.65
2018-08-13T06:52:09.268Z,65.59
2018-08-13T06:53:09.257Z,64.73
2018-08-13T06:54:09.250Z,63.67
2018-08-13T06:55:09.243Z,63.95
2018-08-13T06:56:09.234Z,64.15
2018-08-13T06:57:09.231Z,64.43
2018-08-13T06:58:09.219Z,63.86
2018-08-13T06:59:09.210Z,64.53
2018-08-13T07:00:09.213Z,65.11
2018-08-13T07:01:09.198Z,66.01
2018-08-13T07:02:09.195Z,65.05
2018-08-13T07:03:09.180Z,65.05
2018-08-13T07:04:09.176Z,64.56
2018-08-13T07:05:09.166Z,64.47
2018-08-13T07:06:09.196Z,65.37
2018-08-13T07:07:09.150Z,65.66
2018-08-13T07:08:09.143Z,65.75
2018-08-13T07:09:09.138Z,65.37
2018-08-13T07:10:09.127Z,65.37
2018-08-13T07:11:09.119Z,64.82
2018-08-13T07:12:09.113Z,63.95
2018-08-13T07:13:09.109Z,63.85
2018-08-13T07:14:09.100Z,64.15
2018-08-13T07:15:09.091Z,64.25
2018-08-13T07:16:09.081Z,64.18
2018-08-13T07:17:09.081Z,63.67
2018-08-13T07:18:09.072Z,63.50
2018-08-13T07:19:09.066Z,63.41
2018-08-13T07:20:09.059Z,63.12
2018-08-13T07:21:09.049Z,63.21
2018-08-13T07:22:09.123Z,62.63
2018-08-13T07:23:09.029Z,62.35
2018-08-13T07:24:09.029Z,62.15
2018-08-13T07:25:09.021Z,62.38
2018-08-13T07:26:09.016Z,62.38
2018-08-13T07:27:09.004Z,62.09
2018-08-13T07:28:09.022Z,61.71
2018-08-13T07:29:08.994Z,61.41
2018-08-13T07:30:08.993Z,61.71
2018-08-13T07:31:08.976Z,61.61
2018-08-13T07:32:08.971Z,62.48
2018-08-13T07:33:08.968Z,61.74
2018-08-13T07:34:08.957Z,60.77
2018-08-13T07:35:08.949Z,60.68
2018-08-13T07:36:08.948Z,60.68
2018-08-13T07:37:08.939Z,60.68
2018-08-13T07:38:08.930Z,60.89
2018-08-13T07:39:09.029Z,60.22
2018-08-13T07:40:08.921Z,60.13
2018-08-13T07:41:08.909Z,59.45
2018-08-13T07:42:08.908Z,60.03
2018-08-13T07:43:08.892Z,60.61
2018-08-13T07:44:08.895Z,59.55
2018-08-13T07:45:08.880Z,59.93
2018-08-13T07:46:08.874Z,59.35
2018-08-13T07:47:08.868Z,59.67
2018-08-13T07:48:08.864Z,58.12
2018-08-13T07:49:08.860Z,57.54
2018-08-13T07:50:08.851Z,57.06
2018-08-13T07:51:08.844Z,57.45
2018-08-13T07:52:08.841Z,55.13
2018-08-13T07:53:08.833Z,56.22
2018-08-13T07:54:08.828Z,58.15
2018-08-13T07:55:08.816Z,57.57
2018-08-13T07:56:08.812Z,58.45
2018-08-13T07:57:08.802Z,58.54
2018-08-13T07:58:08.799Z,57.19
2018-08-13T07:59:08.790Z,55.07
2018-08-13T08:00:08.857Z,55.16
2018-08-13T08:01:08.785Z,55.35
2018-08-13T08:02:08.779Z,54.29
2018-08-13T08:03:08.775Z,54.10
2018-08-13T08:04:08.760Z,53.42
2018-08-13T08:05:08.756Z,53.93
2018-08-13T08:06:08.757Z,54.41
2018-08-13T08:07:08.742Z,54.22
2018-08-13T08:08:08.739Z,54.22
2018-08-13T08:09:08.742Z,55.19
2018-08-13T08:10:08.726Z,56.45
2018-08-13T08:11:08.720Z,55.96
2018-08-13T08:12:08.711Z,55.29
2018-08-13T08:13:08.706Z,55.57
2018-08-13T08:14:08.703Z,54.13
2018-08-13T08:15:08.697Z,53.28
2018-08-13T08:16:08.693Z,53.25
2018-08-13T08:17:08.685Z,52.87
2018-08-13T08:18:08.685Z,52.29
2018-08-13T08:19:08.673Z,52.07
2018-08-13T08:20:08.669Z,53.03
2018-08-13T08:21:08.661Z,52.94
2018-08-13T08:22:08.657Z,52.45
2018-08-13T08:23:08.646Z,52.36
2018-08-13T08:24:08.640Z,53.42
2018-08-13T08:25:08.646Z,52.94
2018-08-13T08:26:08.631Z,53.33
2018-08-13T08:27:08.627Z,53.23
2018-08-13T08:28:08.621Z,53.03
2018-08-13T08:29:08.615Z,53.23
2018-08-13T08:30:08.614Z,52.94
2018-08-13T08:31:08.602Z,52.94
2018-08-13T08:32:08.597Z,52.45
2018-08-13T08:33:08.589Z,52.07
2018-08-13T08:34:08.583Z,52.29
2018-08-13T08:35:08.581Z,51.87
2018-08-13T08:36:08.574Z,52.58
2018-08-13T08:37:08.577Z,52.77
2018-08-13T08:38:08.565Z,53.06
2018-08-13T08:39:08.562Z,52.65
2018-08-13T08:40:08.555Z,53.03
2018-08-13T08:41:08.545Z,51.68
2018-08-13T08:42:08.545Z,50.91
2018-08-13T08:43:08.539Z,51.39
2018-08-13T08:44:08.529Z,51.10
2018-08-13T08:45:08.527Z,51.01
2018-08-13T08:46:08.516Z,51.10
2018-08-13T08:47:08.529Z,52.17
2018-08-13T08:48:08.506Z,52.26
2018-08-13T08:49:08.504Z,52.26
2018-08-13T08:50:08.498Z,52.65
2018-08-13T08:51:08.490Z,53.23
2018-08-13T08:52:08.489Z,52.26
2018-08-13T08:53:08.474Z,51.59
2018-08-13T08:54:08.469Z,52.00
2018-08-13T08:55:08.465Z,51.23
2018-08-13T08:56:08.457Z,49.77
2018-08-13T08:57:08.461Z,49.97
2018-08-13T08:58:08.447Z,49.77
2018-08-13T08:59:08.440Z,49.19
2018-08-13T09:00:08.441Z,50.18
2018-08-13T09:01:08.430Z,52.22
2018-08-13T09:02:08.425Z,49.80
2018-08-13T09:03:08.419Z,49.32
2018-08-13T09:04:08.416Z,48.44
2018-08-13T09:05:08.404Z,47.67
2018-08-13T09:06:08.406Z,47.28
2018-08-13T09:07:08.397Z,47.38
2018-08-13T09:08:08.389Z,48.25
2018-08-13T09:09:08.391Z,48.25
2018-08-13T09:10:08.382Z,48.44
2018-08-13T09:11:08.374Z,48.93
2018-08-13T09:12:08.370Z,47.58
2018-08-13T09:13:08.363Z,47.79
2018-08-13T09:14:08.397Z,48.18
2018-08-13T09:15:08.350Z,47.69
2018-08-13T09:16:08.346Z,47.50
2018-08-13T09:17:08.339Z,46.92
2018-08-13T09:18:08.337Z,47.24
2018-08-13T09:19:08.389Z,46.56
2018-08-13T09:20:08.323Z,47.52
2018-08-13T09:21:08.319Z,47.21
2018-08-13T09:22:08.314Z,47.02
2018-08-13T09:23:08.305Z,47.31
2018-08-13T09:24:08.306Z,47.00
2018-08-13T09:25:08.300Z,47.00
2018-08-13T09:26:08.292Z,47.28
2018-08-13T09:27:08.287Z,48.16
2018-08-13T09:28:08.287Z,48.06
2018-08-13T09:29:08.275Z,49.02
2018-08-13T09:30:08.278Z,48.74
2018-08-13T09:31:08.264Z,48.81
2018-08-13T09:32:08.260Z,48.23
2018-08-13T09:33:08.260Z,49.10
2018-08-13T09:34:08.249Z,49.10
2018-08-13T09:35:08.252Z,49.29
2018-08-13T09:36:08.237Z,49.77
2018-08-13T09:37:08.233Z,49.87
2018-08-13T09:38:08.229Z,49.77
2018-08-13T09:39:08.225Z,50.35
2018-08-13T09:40:08.215Z,49.97
2018-08-13T09:41:08.219Z,49.29
2018-08-13T09:42:08.204Z,49.10
2018-08-13T09:43:08.204Z,49.39
2018-08-13T09:44:08.196Z,50.26
2018-08-13T09:45:08.183Z,50.07
2018-08-13T09:46:08.180Z,49.02
2018-08-13T09:47:08.173Z,49.12
2018-08-13T09:48:08.239Z,50.12
2018-08-13T09:49:08.172Z,48.76
2018-08-13T09:50:08.157Z,47.41
2018-08-13T09:51:08.156Z,47.04
2018-08-13T09:52:08.153Z,47.89
2018-08-13T09:53:08.146Z,47.11
2018-08-13T09:54:08.138Z,47.11
2018-08-13T09:55:08.129Z,47.31
2018-08-13T09:56:08.125Z,47.67
2018-08-13T09:57:08.120Z,47.99
2018-08-13T09:58:08.117Z,47.67
2018-08-13T09:59:08.111Z,48.06
2018-08-13T10:00:08.115Z,48.64
2018-08-13T10:01:08.099Z,48.35
2018-08-13T10:02:08.092Z,48.35
2018-08-13T10:03:08.089Z,48.74
2018-08-13T10:04:08.080Z,48.64
2018-08-13T10:05:08.079Z,49.90
2018-08-13T10:06:08.077Z,50.38
2018-08-13T10:07:08.071Z,49.70
2018-08-13T10:08:08.061Z,48.83
2018-08-13T10:09:08.059Z,49.70
2018-08-13T10:10:08.055Z,48.93
2018-08-13T10:11:08.047Z,49.12
2018-08-13T10:12:08.042Z,50.09
2018-08-13T10:13:08.032Z,49.02
2018-08-13T10:14:08.026Z,48.83
2018-08-13T10:15:08.024Z,49.22
2018-08-13T10:16:08.017Z,49.32
2018-08-13T10:17:08.017Z,49.02
2018-08-13T10:18:08.003Z,49.32
2018-08-13T10:19:08.001Z,50.18
2018-08-13T10:20:07.993Z,49.80
2018-08-13T10:21:07.989Z,50.09
2018-08-13T10:22:07.986Z,48.93
2018-08-13T10:23:07.978Z,49.41
2018-08-13T10:24:07.973Z,50.48
2018-08-13T10:25:07.968Z,50.57
2018-08-13T10:26:07.959Z,50.96
2018-08-13T10:27:07.956Z,50.76
2018-08-13T10:28:07.951Z,50.76
2018-08-13T10:29:07.942Z,50.38
2018-08-13T10:30:07.943Z,51.06
2018-08-13T10:31:07.940Z,50.84
2018-08-13T10:32:07.929Z,51.03
2018-08-13T10:33:07.921Z,51.13
2018-08-13T10:34:07.917Z,51.32
2018-08-13T10:35:07.911Z,51.03
2018-08-13T10:36:07.908Z,51.03
2018-08-13T10:37:07.903Z,51.23
2018-08-13T10:38:07.898Z,51.23
2018-08-13T10:39:07.891Z,51.81
2018-08-13T10:40:07.883Z,51.90
2018-08-13T10:41:07.885Z,52.39
2018-08-13T10:42:07.873Z,52.26
2018-08-13T10:43:07.867Z,52.55
2018-08-13T10:44:07.862Z,53.13
2018-08-13T10:45:07.851Z,53.61
2018-08-13T10:46:07.848Z,54.00
2018-08-13T10:47:07.845Z,54.00
2018-08-13T10:48:07.837Z,55.26
2018-08-13T10:49:07.829Z,54.68
2018-08-13T10:50:07.825Z,55.65
2018-08-13T10:51:07.820Z,54.97
2018-08-13T10:52:07.821Z,55.45
2018-08-13T10:53:07.809Z,56.22
2018-08-13T10:54:07.805Z,56.90
2018-08-13T10:55:07.799Z,55.35
2018-08-13T10:56:07.833Z,56.13
2018-08-13T10:57:07.790Z,55.16
2018-08-13T10:58:07.778Z,55.35
2018-08-13T10:59:07.776Z,55.55
2018-08-13T11:00:07.778Z,54.10
2018-08-13T11:01:07.786Z,54.39
2018-08-13T11:02:07.751Z,53.81
2018-08-13T11:03:07.819Z,54.58
2018-08-13T11:04:07.740Z,55.35
2018-08-13T11:05:07.739Z,55.33
2018-08-13T11:06:07.733Z,55.42
2018-08-13T11:07:07.726Z,56.56
2018-08-13T11:08:07.717Z,56.07
2018-08-13T11:09:07.708Z,57.32
2018-08-13T11:10:07.708Z,57.20
2018-08-13T11:11:07.714Z,57.68
2018-08-13T11:12:07.694Z,57.29
2018-08-13T11:13:07.687Z,58.26
2018-08-13T11:14:07.685Z,58.84
2018-08-13T11:15:07.681Z,59.03
2018-08-13T11:16:07.680Z,58.65
2018-08-13T11:17:07.667Z,58.45
2018-08-13T11:18:07.661Z,59.78
2018-08-13T11:19:07.652Z,59.61
2018-08-13T11:20:07.652Z,59.80
2018-08-13T11:21:07.647Z,59.78
2018-08-13T11:22:07.640Z,60.58
2018-08-13T11:23:07.634Z,60.28
2018-08-13T11:24:07.622Z,60.35
2018-08-13T11:25:07.610Z,59.30
2018-08-13T11:26:07.615Z,58.91
2018-08-13T11:27:07.605Z,59.58
2018-08-13T11:28:07.597Z,61.22
2018-08-13T11:29:07.588Z,59.23
2018-08-13T11:30:07.583Z,59.80
2018-08-13T11:31:07.622Z,59.90
2018-08-13T11:32:07.569Z,60.19
2018-08-13T11:33:07.567Z,61.38
2018-08-13T11:34:07.563Z,61.96
2018-08-13T11:35:07.553Z,60.80
2018-08-13T11:36:07.543Z,59.55
2018-08-13T11:37:07.541Z,59.67
2018-08-13T11:38:07.527Z,59.96
2018-08-13T11:39:07.527Z,58.22
2018-08-13T11:40:07.521Z,57.64
2018-08-13T11:41:07.515Z,57.16
2018-08-13T11:42:07.518Z,58.61
2018-08-13T11:43:07.506Z,58.61
2018-08-13T11:44:07.495Z,59.19
2018-08-13T11:45:07.487Z,58.70
2018-08-13T11:46:07.483Z,58.45
2018-08-13T11:47:07.485Z,56.99
2018-08-13T11:48:07.470Z,57.67
2018-08-13T11:49:07.462Z,59.02
2018-08-13T11:50:07.454Z,59.12
2018-08-13T11:51:07.446Z,60.28
2018-08-13T11:52:07.442Z,59.99
2018-08-13T11:53:07.438Z,58.06
2018-08-13T11:54:07.435Z,58.35
2018-08-13T11:55:07.432Z,57.57
2018-08-13T11:56:07.421Z,56.90
2018-08-13T11:57:07.418Z,55.81
2018-08-13T11:58:07.416Z,56.39
2018-08-13T11:59:07.410Z,57.45
2018-08-13T12:00:07.400Z,58.12
2018-08-13T12:01:07.436Z,58.22
2018-08-13T12:02:07.451Z,57.77
2018-08-13T12:03:07.376Z,57.48
2018-08-13T12:04:07.376Z,57.84
2018-08-13T12:05:07.364Z,57.57
2018-08-13T12:06:07.373Z,57.96
2018-08-13T12:07:07.357Z,56.61
2018-08-13T12:08:07.351Z,57.29
2018-08-13T12:09:07.346Z,56.90
2018-08-13T12:10:07.340Z,57.29
2018-08-13T12:11:07.335Z,57.87
2018-08-13T12:12:07.333Z,56.99
2018-08-13T12:13:07.323Z,57.57
2018-08-13T12:14:07.401Z,57.09
2018-08-13T12:15:07.313Z,55.93
2018-08-13T12:16:07.306Z,56.13
2018-08-13T12:17:07.294Z,55.55
2018-08-13T12:18:07.294Z,55.65
2018-08-13T12:19:07.285Z,56.03
2018-08-13T12:20:07.282Z,55.74
2018-08-13T12:21:07.276Z,55.65
2018-08-13T12:22:07.274Z,54.68
2018-08-13T12:23:07.266Z,55.16
2018-08-13T12:24:07.258Z,54.07
2018-08-13T12:25:07.260Z,54.36
2018-08-13T12:26:07.249Z,54.68
2018-08-13T12:27:07.243Z,55.04
2018-08-13T12:28:07.236Z,54.65
2018-08-13T12:29:07.223Z,54.94
2018-08-13T12:30:07.225Z,55.33
2018-08-13T12:31:07.219Z,57.06
2018-08-13T12:32:07.209Z,57.52
2018-08-13T12:33:07.198Z,57.81
2018-08-13T12:34:07.195Z,57.52
2018-08-13T12:35:07.190Z,57.90
2018-08-13T12:36:07.191Z,58.94
2018-08-13T12:37:07.180Z,58.36
2018-08-13T12:38:07.182Z,59.13
2018-08-13T12:39:07.166Z,58.94
2018-08-13T12:40:07.165Z,59.90
2018-08-13T12:41:07.250Z,59.80
2018-08-13T12:42:07.147Z,60.93
2018-08-13T12:43:07.141Z,62.31
2018-08-13T12:44:07.133Z,63.24
2018-08-13T12:45:07.132Z,64.02
2018-08-13T12:46:07.126Z,64.98
2018-08-13T12:47:07.122Z,64.86
2018-08-13T12:48:07.110Z,65.72
2018-08-13T12:49:07.103Z,65.05
2018-08-13T12:50:07.100Z,64.95
2018-08-13T12:51:07.165Z,66.20
2018-08-13T12:52:07.084Z,67.36